^^
Station Historical Data
Daily Summary for January 24, 2018 Units:  Metric    English   Both
« Previous Day
Next Day »
Daily Weekly Monthly Yearly Custom
  High: Low: Average:
Temperature: -17.8 °C 15.6 °C 24.5 °C
Dew Point: -17.8 °C -1.2 °C 2.6 °C
Humidity: Humidity% 16% 25%
Wind Speed: 0km/h 0km/h 2.6km/h
Wind Gust: 0km/h - -
Wind- - WSW
Pressure: 0 hPa 1000.6 hPa -
Precipitation: 0 mm    
Historical Graphs
 
 
Tabular Data for January 24, 2018
Time Temperature Dew Point Pressure Wind Wind Speed Wind Gust Humidity Rainfall Rate (Hourly) solar Conditions
-17.8 °C -17.8 °C 0 hPa Calm     Humidity% 0 mm SolarRadiationWatts/m^2 W/m2 Conditions
00:00 22.2 °C 0.1 °C 1004.6 hPa Calm   4.8 km/h 23% 0 mm 0.0 W/m2
00:05 22.2 °C 0.1 °C 1004.6 hPa Calm   4.8 km/h 23% 0 mm 0.0 W/m2
00:10 22.2 °C 0.1 °C 1004.6 hPa SW 1.4 km/h 4.8 km/h 23% 0 mm 0.0 W/m2
00:15 22.1 °C 0 °C 1004.6 hPa Calm   1.6 km/h 23% 0 mm 0.0 W/m2
00:20 22.1 °C 0 °C 1004.3 hPa Calm   1.6 km/h 23% 0 mm 0.0 W/m2
00:26 22 °C -0.1 °C 1004.3 hPa Calm   1.6 km/h 23% 0 mm 0.0 W/m2
00:31 21.9 °C -0.2 °C 1004.3 hPa Calm   1.6 km/h 23% 0 mm 0.0 W/m2
00:36 21.8 °C -0.3 °C 1004.3 hPa Calm     23% 0 mm 0.0 W/m2
00:41 21.7 °C 0.2 °C 1004.3 hPa Calm   1.6 km/h 24% 0 mm 0.0 W/m2
00:46 21.6 °C 0.2 °C 1004.3 hPa Calm     24% 0 mm 0.0 W/m2
00:51 21.6 °C 0.2 °C 1004.3 hPa Calm   3.2 km/h 24% 0 mm 0.0 W/m2
00:56 21.5 °C 0.6 °C 1004.3 hPa Calm     25% 0 mm 0.0 W/m2
01:01 21.4 °C 0.6 °C 1004.3 hPa Calm     25% 0 mm 0.0 W/m2
01:06 21.4 °C 0.6 °C 1004.3 hPa Calm     25% 0 mm 0.0 W/m2
01:12 21.4 °C 0.6 °C 1004.3 hPa Calm   1.6 km/h 25% 0 mm 0.0 W/m2
01:17 21.4 °C 0 °C 1004.6 hPa Calm     24% 0 mm 0.0 W/m2
01:22 21.4 °C 0 °C 1004.6 hPa Calm   3.2 km/h 24% 0 mm 0.0 W/m2
01:27 21.4 °C 0 °C 1004.6 hPa ENE 1.4 km/h 8 km/h 24% 0 mm 0.0 W/m2
01:32 21.4 °C 0 °C 1004.6 hPa Calm   1.6 km/h 24% 0 mm 0.0 W/m2
01:37 21.4 °C 0 °C 1004.6 hPa Calm     24% 0 mm 0.0 W/m2
01:47 21.3 °C 0.5 °C 1004.6 hPa NE 1.4 km/h 6.4 km/h 25% 0 mm 0.0 W/m2
01:53 21.2 °C 0.4 °C 1004.6 hPa Calm   1.6 km/h 25% 0 mm 0.0 W/m2
01:58 21.1 °C 0.8 °C 1004.6 hPa NE 1.4 km/h 1.6 km/h 26% 0 mm 0.0 W/m2
02:03 20.9 °C 0.7 °C 1004.6 hPa Calm   3.2 km/h 26% 0 mm 0.0 W/m2
02:08 20.7 °C 0.5 °C 1004.6 hPa Calm     26% 0 mm 0.0 W/m2
02:13 20.6 °C 0.4 °C 1004.6 hPa Calm   1.6 km/h 26% 0 mm 0.0 W/m2
02:23 20.3 °C 0.2 °C 1004.6 hPa Calm     26% 0 mm 0.0 W/m2
02:28 20.2 °C 0.6 °C 1004.6 hPa Calm     27% 0 mm 0.0 W/m2
02:43 19.8 °C 0.8 °C 1004.6 hPa Calm     28% 0 mm 0.0 W/m2
02:49 19.7 °C 0.2 °C 1004.3 hPa Calm     27% 0 mm 0.0 W/m2
02:54 19.6 °C 0.6 °C 1004.6 hPa Calm   1.6 km/h 28% 0 mm 0.0 W/m2
03:00 19.5 °C 0.5 °C 1004.6 hPa Calm     28% 0 mm 0.0 W/m2
03:05 19.4 °C 0.4 °C 1004.3 hPa Calm     28% 0 mm 0.0 W/m2
03:10 19.3 °C 0.3 °C 1004.6 hPa Calm   1.6 km/h 28% 0 mm 0.0 W/m2
03:15 19.2 °C 0.2 °C 1004.3 hPa Calm   4.8 km/h 28% 0 mm 0.0 W/m2
03:20 19.1 °C 0.2 °C 1004.3 hPa Calm   1.6 km/h 28% 0 mm 0.0 W/m2
03:25 19 °C 0.6 °C 1004.3 hPa Calm     29% 0 mm 0.0 W/m2
03:30 18.9 °C 0.5 °C 1004.3 hPa Calm   1.6 km/h 29% 0 mm 0.0 W/m2
03:36 18.8 °C 0.4 °C 1004.3 hPa Calm     29% 0 mm 0.0 W/m2
03:41 18.7 °C 0.3 °C 1004.3 hPa Calm   3.2 km/h 29% 0 mm 0.0 W/m2
03:51 18.5 °C 0.6 °C 1004.3 hPa Calm     30% 0 mm 0.0 W/m2
03:56 18.3 °C 0.4 °C 1003.9 hPa Calm     30% 0 mm 0.0 W/m2
04:01 18.2 °C 0.8 °C 1004.3 hPa Calm     31% 0 mm 0.0 W/m2
04:06 18.1 °C 0.7 °C 1004.3 hPa Calm     31% 0 mm 0.0 W/m2
04:11 18 °C 1.1 °C 1003.9 hPa NE 1.4 km/h 3.2 km/h 32% 0 mm 0.0 W/m2
04:16 17.8 °C 0.4 °C 1004.3 hPa Calm   3.2 km/h 31% 0 mm 0.0 W/m2
04:22 17.7 °C 0.8 °C 1004.3 hPa Calm     32% 0 mm 0.0 W/m2
04:27 17.6 °C 0.7 °C 1004.3 hPa Calm     32% 0 mm 0.0 W/m2
04:32 17.4 °C 1 °C 1004.3 hPa Calm     33% 0 mm 0.0 W/m2
04:37 17.3 °C 1.3 °C 1003.9 hPa Calm   1.6 km/h 34% 0 mm 0.0 W/m2
04:42 17.2 °C 1.2 °C 1003.9 hPa Calm   1.6 km/h 34% 0 mm 0.0 W/m2
04:52 17 °C 1 °C 1003.9 hPa Calm     34% 0 mm 0.0 W/m2
04:57 16.9 °C 0.5 °C 1003.9 hPa Calm   1.6 km/h 33% 0 mm 0.0 W/m2
05:02 16.8 °C 0.8 °C 1003.9 hPa Calm   1.6 km/h 34% 0 mm 0.0 W/m2
05:08 16.7 °C 0.8 °C 1003.9 hPa Calm   1.6 km/h 34% 0 mm 0.0 W/m2
05:13 16.6 °C 1.5 °C 1003.9 hPa Calm     36% 0 mm 0.0 W/m2
05:18 16.5 °C 1 °C 1003.9 hPa Calm   3.2 km/h 35% 0 mm 0.0 W/m2
05:23 16.3 °C 0.8 °C 1004.3 hPa Calm   1.6 km/h 35% 0 mm 0.0 W/m2
05:28 16.2 °C 0.7 °C 1003.9 hPa Calm   1.6 km/h 35% 0 mm 0.0 W/m2
05:38 16.1 °C 0.6 °C 1004.3 hPa East 3.2 km/h 4.8 km/h 35% 0 mm 0.0 W/m2
05:43 16 °C 0.5 °C 1004.3 hPa Calm   3.2 km/h 35% 0 mm 0.0 W/m2
05:54 15.9 °C 0.5 °C 1004.3 hPa Calm   3.2 km/h 35% 0 mm 0.0 W/m2
05:59 15.9 °C 0.5 °C 1004.3 hPa Calm   1.6 km/h 35% 0 mm 0.0 W/m2
06:04 15.9 °C 0.8 °C 1004.3 hPa Calm   4.8 km/h 36% 0 mm 0.0 W/m2
06:09 15.9 °C 0.8 °C 1004.3 hPa Calm   1.6 km/h 36% 0 mm 0.0 W/m2
06:14 15.9 °C 0.8 °C 1004.3 hPa Calm   1.6 km/h 36% 0 mm 0.0 W/m2
06:19 15.8 °C 0.8 °C 1004.3 hPa Calm     36% 0 mm 0.0 W/m2
06:24 15.8 °C 1.1 °C 1004.3 hPa Calm     37% 0 mm 0.0 W/m2
06:34 15.7 °C 1 °C 1004.6 hPa Calm     37% 0 mm 7.0 W/m2
06:45 15.7 °C 1.4 °C 1004.6 hPa Calm     38% 0 mm 11.0 W/m2
06:55 15.6 °C 1 °C 1005 hPa Calm   1.6 km/h 37% 0 mm 14.0 W/m2
07:00 15.6 °C 0.6 °C 1005 hPa Calm   3.2 km/h 36% 0 mm 16.0 W/m2
07:05 15.6 °C 0.6 °C 1005 hPa ESE 1.4 km/h 3.2 km/h 36% 0 mm 18.0 W/m2
07:15 15.9 °C 1.2 °C 1005 hPa Calm   1.6 km/h 37% 0 mm 21.0 W/m2
07:26 16.2 °C 0.7 °C 1005 hPa Calm   4.8 km/h 35% 0 mm 23.0 W/m2
07:31 16.5 °C 1 °C 1005 hPa Calm   8 km/h 35% 0 mm 25.0 W/m2
07:36 16.7 °C 1.2 °C 1005 hPa Calm   4.8 km/h 35% 0 mm 25.0 W/m2
07:46 17.3 °C 1.3 °C 1005 hPa Calm   1.6 km/h 34% 0 mm 141.0 W/m2
07:51 17.7 °C 1.2 °C 1005 hPa Calm   1.6 km/h 33% 0 mm 202.0 W/m2
07:56 18.2 °C 1.2 °C 1005 hPa Calm   1.6 km/h 32% 0 mm 281.0 W/m2
08:01 18.7 °C 2.1 °C 1005 hPa Calm   1.6 km/h 33% 0 mm 325.0 W/m2
08:06 19.1 °C 2 °C 1005 hPa Calm   1.6 km/h 32% 0 mm 341.0 W/m2
08:12 19.6 °C 2 °C 1005 hPa Calm     31% 0 mm 371.0 W/m2
08:17 20.1 °C 1.5 °C 1005 hPa Calm   1.6 km/h 29% 0 mm 399.0 W/m2
08:22 21 °C 0.2 °C 1005 hPa Calm   4.8 km/h 25% 0 mm 420.0 W/m2
08:27 21.9 °C -0.8 °C 1005 hPa Calm   1.6 km/h 22% 0 mm 438.0 W/m2
08:32 22.6 °C -0.8 °C 1005 hPa West 1.4 km/h 3.2 km/h 21% 0 mm 461.0 W/m2
08:37 23 °C -0.5 °C 1005 hPa Calm   1.6 km/h 21% 0 mm 480.0 W/m2
08:42 23.8 °C -1.2 °C 1005 hPa Calm   4.8 km/h 19% 0 mm 499.0 W/m2
08:47 24.4 °C -0.7 °C 1005 hPa Calm   1.6 km/h 19% 0 mm 520.0 W/m2
08:52 24.7 °C 0.2 °C 1005 hPa Calm     20% 0 mm 538.0 W/m2
08:58 25 °C -0.2 °C 1005 hPa NW 1.4 km/h 4.8 km/h 19% 0 mm 557.0 W/m2
09:03 25.4 °C 0.1 °C 1005 hPa West 3.2 km/h 4.8 km/h 19% 0 mm 577.0 W/m2
09:08 25.4 °C 0.1 °C 1005 hPa NW 4.7 km/h 4.8 km/h 19% 0 mm 594.0 W/m2
09:13 25.6 °C 0.3 °C 1005 hPa North 3.2 km/h 3.2 km/h 19% 0 mm 613.0 W/m2
09:18 25.7 °C 0.3 °C 1004.6 hPa WNW 3.2 km/h 6.4 km/h 19% 0 mm 631.0 W/m2
09:23 25.6 °C 0.3 °C 1004.6 hPa Calm   8 km/h 19% 0 mm 650.0 W/m2
09:28 25.8 °C 0.4 °C 1005 hPa Calm   4.8 km/h 19% 0 mm 668.0 W/m2
09:44 26.4 °C 1.6 °C 1004.6 hPa WSW 1.4 km/h 3.2 km/h 20% 0 mm 722.0 W/m2
09:49 26.6 °C 1.8 °C 1005 hPa West 4.7 km/h 4.8 km/h 20% 0 mm 737.0 W/m2
09:54 26.7 °C 1.2 °C 1005 hPa WSW 1.4 km/h 11.3 km/h 19% 0 mm 756.0 W/m2
09:59 26.8 °C 1.2 °C 1005 hPa NE 4.7 km/h 4.8 km/h 19% 0 mm 772.0 W/m2
10:04 27 °C 2.1 °C 1004.6 hPa Calm   3.2 km/h 20% 0 mm 788.0 W/m2
10:09 27.3 °C 1.7 °C 1004.6 hPa NW 3.2 km/h 8 km/h 19% 0 mm 805.0 W/m2
10:14 27.7 °C 2 °C 1004.6 hPa Calm   6.4 km/h 19% 0 mm 819.0 W/m2
10:19 27.9 °C 2.1 °C 1004.6 hPa WSW 1.4 km/h 4.8 km/h 19% 0 mm 835.0 W/m2
10:24 27.8 °C 2.1 °C 1004.6 hPa Calm   4.8 km/h 19% 0 mm 851.0 W/m2
10:34 28.4 °C 2.6 °C 1004.6 hPa WSW 6.4 km/h 9.7 km/h 19% 0 mm 879.0 W/m2
10:40 28.6 °C 3.4 °C 1004.6 hPa WSW 4.7 km/h 8 km/h 20% 0 mm 891.0 W/m2
10:45 28.6 °C 2.7 °C 1004.6 hPa South 7.9 km/h 9.7 km/h 19% 0 mm 907.0 W/m2
10:50 28.4 °C 3.3 °C 1004.6 hPa WNW 4.7 km/h 8 km/h 20% 0 mm 916.0 W/m2
10:55 28.4 °C 4.6 °C 1004.6 hPa WSW 1.4 km/h 12.9 km/h 22% 0 mm 925.0 W/m2
11:00 28.7 °C 4.2 °C 1004.3 hPa Calm   11.3 km/h 21% 0 mm 937.0 W/m2
11:05 29.2 °C 5.3 °C 1004.3 hPa Calm   12.9 km/h 22% 0 mm 946.0 W/m2
11:10 29.3 °C 5.4 °C 1004.6 hPa West 13 km/h 16.1 km/h 22% 0 mm 962.0 W/m2
11:20 29.1 °C 4.5 °C 1004.3 hPa WNW 3.2 km/h 11.3 km/h 21% 0 mm 977.0 W/m2
11:26 29.6 °C 5.6 °C 1004.3 hPa WSW 4.7 km/h 4.8 km/h 22% 0 mm 990.0 W/m2
11:32 30.2 °C 4.8 °C 1004.3 hPa NW 3.2 km/h 9.7 km/h 20% 0 mm 998.0 W/m2
11:42 30.3 °C 4.8 °C 1004.3 hPa NW 3.2 km/h 4.8 km/h 20% 0 mm 1014.0 W/m2
11:48 30.1 °C 4.7 °C 1003.9 hPa WNW 1.4 km/h 11.3 km/h 20% 0 mm 1023.0 W/m2
11:53 30.3 °C 4.8 °C 1003.9 hPa NW 6.4 km/h 12.9 km/h 20% 0 mm 1028.0 W/m2
11:56 30.5 °C 4.3 °C 1003.9 hPa West 3.2 km/h 8 km/h 19% 0 mm 1030.0 W/m2
12:01 30.5 °C 4.3 °C 1003.9 hPa West 9.7 km/h 12.9 km/h 19% 0 mm 1039.0 W/m2
12:06 30.3 °C 4.1 °C 1003.9 hPa NW 4.7 km/h 4.8 km/h 19% 0 mm 1042.0 W/m2
12:17 30.8 °C 3.7 °C 1003.9 hPa NNW 14.3 km/h 19.3 km/h 18% 0 mm 1049.0 W/m2
12:22 30.9 °C 4.6 °C 1003.9 hPa Calm   8 km/h 19% 0 mm 1055.0 W/m2
12:27 30.9 °C 4.6 °C 1003.6 hPa NW 3.2 km/h 6.4 km/h 19% 0 mm 1060.0 W/m2
12:37 31 °C 3.9 °C 1003.6 hPa SE 4.7 km/h 6.4 km/h 18% 0 mm 1062.0 W/m2
12:42 31.3 °C 3.3 °C 1003.3 hPa Calm   1.6 km/h 17% 0 mm 1069.0 W/m2
12:52 31.8 °C 4.6 °C 1003.3 hPa West 1.4 km/h 11.3 km/h 18% 0 mm 1058.0 W/m2
13:07 31.8 °C 3.7 °C 1002.9 hPa WSW 4.7 km/h 14.5 km/h 17% 0 mm 1081.0 W/m2
13:23 31.7 °C 4.5 °C 1002.9 hPa SSW 6.4 km/h 14.5 km/h 18% 0 mm 1100.0 W/m2
13:28 31.4 °C 4.2 °C 1002.9 hPa WSW 6.4 km/h 17.7 km/h 18% 0 mm 1095.0 W/m2
13:38 31.8 °C 4.6 °C 1002.9 hPa North 1.4 km/h 9.7 km/h 18% 0 mm 1072.0 W/m2
13:48 32.7 °C 4.5 °C 1002.9 hPa Calm   6.4 km/h 17% 0 mm 1074.0 W/m2
13:53 32.9 °C 4.6 °C 1002.6 hPa SE 3.2 km/h 11.3 km/h 17% 0 mm 1111.0 W/m2
14:04 33 °C 4.7 °C 1002.3 hPa West 1.4 km/h 12.9 km/h 17% 0 mm 1090.0 W/m2
14:09 33.1 °C 3.9 °C 1002.3 hPa WSW 6.4 km/h 11.3 km/h 16% 0 mm 1151.0 W/m2
14:32 34.1 °C 4.7 °C 1002.3 hPa NNE 1.4 km/h 3.2 km/h 16% 0 mm 332.0 W/m2
14:37 33.5 °C 5.1 °C 1002.3 hPa NW 3.2 km/h 11.3 km/h 17% 0 mm 520.0 W/m2
14:43 33.1 °C 4.8 °C 1001.9 hPa Calm   4.8 km/h 17% 0 mm 325.0 W/m2
14:48 32.6 °C 5.2 °C 1001.9 hPa NW 4.7 km/h 22.5 km/h 18% 0 mm 297.0 W/m2
14:53 32.1 °C 5.6 °C 1001.9 hPa WNW 6.4 km/h 14.5 km/h 19% 0 mm 292.0 W/m2
14:58 32 °C 5.5 °C 1001.9 hPa NW 11.1 km/h 19.3 km/h 19% 0 mm 397.0 W/m2
15:03 31.8 °C 5.3 °C 1001.9 hPa WNW 3.2 km/h 8 km/h 19% 0 mm 320.0 W/m2
15:08 31.6 °C 5.2 °C 1001.9 hPa Calm   9.7 km/h 19% 0 mm 318.0 W/m2
15:13 31.7 °C 5.2 °C 1001.9 hPa West 7.9 km/h 14.5 km/h 19% 0 mm 1048.0 W/m2
15:18 31.8 °C 5.3 °C 1001.9 hPa NNW 1.4 km/h 12.9 km/h 19% 0 mm 229.0 W/m2
15:23 31.7 °C 5.2 °C 1001.9 hPa NW 27.4 km/h 27.4 km/h 19% 0 mm 285.0 W/m2
15:28 31.6 °C 5.2 °C 1001.9 hPa West 1.4 km/h 24.1 km/h 19% 0 mm 765.0 W/m2
15:39 32.2 °C 5.7 °C 1001.6 hPa WSW 13 km/h 19.3 km/h 19% 0 mm 911.0 W/m2
15:54 32.4 °C 5.8 °C 1001.6 hPa West 7.9 km/h 8 km/h 19% 0 mm 831.0 W/m2
15:59 32.7 °C 5.3 °C 1001.2 hPa Calm   6.4 km/h 18% 0 mm 816.0 W/m2
16:04 32.9 °C 6.2 °C 1001.2 hPa SW 4.7 km/h 9.7 km/h 19% 0 mm 860.0 W/m2
16:09 33.3 °C 5.8 °C 1001.2 hPa SSW 3.2 km/h 11.3 km/h 18% 0 mm 805.0 W/m2
16:15 33.3 °C 5.8 °C 1001.2 hPa West 1.4 km/h 8 km/h 18% 0 mm 735.0 W/m2
16:25 33.4 °C 5.8 °C 1000.9 hPa NNW 4.7 km/h 9.7 km/h 18% 0 mm 733.0 W/m2
16:35 33.6 °C 6 °C 1000.9 hPa West 4.7 km/h 22.5 km/h 18% 0 mm 673.0 W/m2
16:40 33.2 °C 5.7 °C 1000.9 hPa NNW 7.9 km/h 16.1 km/h 18% 0 mm 654.0 W/m2
16:45 33.1 °C 5.6 °C 1000.9 hPa WSW 7.9 km/h 12.9 km/h 18% 0 mm 640.0 W/m2
16:50 32.9 °C 5.4 °C 1000.6 hPa WSW 14.3 km/h 14.5 km/h 18% 0 mm 605.0 W/m2
17:06 32.4 °C 5 °C 1000.6 hPa WSW 4.7 km/h 20.9 km/h 18% 0 mm 547.0 W/m2
17:11 32.4 °C 5 °C 1000.6 hPa Calm   6.4 km/h 18% 0 mm 531.0 W/m2
17:16 32.4 °C 5 °C 1000.6 hPa WSW 6.4 km/h 11.3 km/h 18% 0 mm 515.0 W/m2
17:21 32.4 °C 5 °C 1000.6 hPa West 3.2 km/h 12.9 km/h 18% 0 mm 492.0 W/m2
17:26 32.6 °C 5.2 °C 1000.6 hPa NW 7.9 km/h 11.3 km/h 18% 0 mm 483.0 W/m2
17:31 32.6 °C 5.2 °C 1000.6 hPa SW 11.1 km/h 11.3 km/h 18% 0 mm 47.0 W/m2
17:36 32.1 °C 4.8 °C 1000.6 hPa WSW 6.4 km/h 8 km/h 18% 0 mm 65.0 W/m2
17:41 31.8 °C 4.6 °C 1000.6 hPa WSW 4.7 km/h 9.7 km/h 18% 0 mm 415.0 W/m2
17:47 31.9 °C 4.6 °C 1000.6 hPa WSW 6.4 km/h 12.9 km/h 18% 0 mm 390.0 W/m2
17:52 32 °C 4.7 °C 1000.6 hPa West 4.7 km/h 14.5 km/h 18% 0 mm 380.0 W/m2
17:57 32 °C 4.7 °C 1000.6 hPa WSW 4.7 km/h 14.5 km/h 18% 0 mm 338.0 W/m2
18:02 31.6 °C 4.4 °C 1000.6 hPa West 4.7 km/h 16.1 km/h 18% 0 mm 334.0 W/m2
18:07 31.1 °C 4.8 °C 1000.6 hPa West 16.3 km/h 17.7 km/h 19% 0 mm 308.0 W/m2
18:12 30.8 °C 4.5 °C 1000.6 hPa WNW 14.3 km/h 14.5 km/h 19% 0 mm 295.0 W/m2
18:22 30.7 °C 4.4 °C 1000.9 hPa SW 7.9 km/h 17.7 km/h 19% 0 mm 258.0 W/m2
18:28 30.5 °C 4.3 °C 1001.2 hPa WSW 16.3 km/h 27.4 km/h 19% 0 mm 234.0 W/m2
18:34 30.1 °C 4.7 °C 1000.9 hPa SW 3.2 km/h 16.1 km/h 20% 0 mm 209.0 W/m2
18:39 29.9 °C 4.5 °C 1001.2 hPa SW 3.2 km/h 16.1 km/h 20% 0 mm 185.0 W/m2
18:44 29.8 °C 4.4 °C 1001.2 hPa West 7.9 km/h 17.7 km/h 20% 0 mm 163.0 W/m2
18:50 29.3 °C 4 °C 1001.2 hPa SSW 7.9 km/h 20.9 km/h 20% 0 mm 132.0 W/m2
18:55 28.9 °C 3.7 °C 1001.2 hPa SW 6.4 km/h 16.1 km/h 20% 0 mm 46.0 W/m2
19:00 28.7 °C 4.2 °C 1001.2 hPa WSW 6.4 km/h 16.1 km/h 21% 0 mm 33.0 W/m2
19:05 28.5 °C 4.1 °C 1001.6 hPa SSW 7.9 km/h 12.9 km/h 21% 0 mm 28.0 W/m2
19:10 28.2 °C 3.8 °C 1001.6 hPa West 3.2 km/h 20.9 km/h 21% 0 mm 25.0 W/m2
19:15 27.9 °C 4.2 °C 1001.9 hPa West 16.3 km/h 20.9 km/h 22% 0 mm 21.0 W/m2
19:26 27.5 °C 3.9 °C 1001.9 hPa WSW 14.3 km/h 17.7 km/h 22% 0 mm 12.0 W/m2
19:32 27.2 °C 4.3 °C 1001.9 hPa WSW 1.4 km/h 14.5 km/h 23% 0 mm 9.0 W/m2
19:47 26.7 °C 4.5 °C 1002.3 hPa WSW 3.2 km/h 12.9 km/h 24% 0 mm 0.0 W/m2
19:52 26.6 °C 4.4 °C 1002.6 hPa WSW 14.3 km/h 16.1 km/h 24% 0 mm 0.0 W/m2
19:57 26.3 °C 4.1 °C 1002.6 hPa SSW 4.7 km/h 22.5 km/h 24% 0 mm 0.0 W/m2
20:02 26.1 °C 4.5 °C 1002.9 hPa Calm   17.7 km/h 25% 0 mm 0.0 W/m2
20:07 25.9 °C 4.4 °C 1002.9 hPa West 9.7 km/h 9.7 km/h 25% 0 mm 0.0 W/m2
20:12 25.8 °C 4.8 °C 1002.9 hPa WSW 3.2 km/h 11.3 km/h 26% 0 mm 0.0 W/m2
20:17 25.6 °C 4.7 °C 1003.3 hPa WNW 11.1 km/h 14.5 km/h 26% 0 mm 0.0 W/m2
20:22 25.4 °C 4.5 °C 1003.3 hPa West 1.4 km/h 11.3 km/h 26% 0 mm 0.0 W/m2
20:27 25.3 °C 5 °C 1003.3 hPa WSW 7.9 km/h 8 km/h 27% 0 mm 0.0 W/m2
20:32 25.2 °C 4.9 °C 1003.6 hPa WSW 4.7 km/h 16.1 km/h 27% 0 mm 0.0 W/m2
20:43 24.8 °C 4.5 °C 1003.6 hPa WSW 1.4 km/h 12.9 km/h 27% 0 mm 0.0 W/m2
20:48 24.7 °C 4.4 °C 1003.9 hPa WSW 13 km/h 16.1 km/h 27% 0 mm 0.0 W/m2
20:59 24.4 °C 4.7 °C 1003.9 hPa SW 1.4 km/h 14.5 km/h 28% 0 mm 0.0 W/m2
21:04 24.3 °C 5.1 °C 1003.9 hPa Calm   6.4 km/h 29% 0 mm 0.0 W/m2
21:09 24.3 °C 5.1 °C 1004.3 hPa WSW 3.2 km/h 4.8 km/h 29% 0 mm 0.0 W/m2
21:20 24 °C 4.9 °C 1004.3 hPa South 4.7 km/h 6.4 km/h 29% 0 mm 0.0 W/m2
21:26 23.9 °C 4.8 °C 1003.9 hPa WSW 4.7 km/h 11.3 km/h 29% 0 mm 0.0 W/m2
21:31 23.8 °C 4.7 °C 1004.3 hPa WSW 3.2 km/h 11.3 km/h 29% 0 mm 0.0 W/m2
21:36 23.7 °C 4.6 °C 1004.3 hPa West 1.4 km/h 9.7 km/h 29% 0 mm 0.0 W/m2
21:41 23.7 °C 4.6 °C 1004.3 hPa Calm   4.8 km/h 29% 0 mm 0.0 W/m2
21:46 23.6 °C 4.5 °C 1004.6 hPa Calm   3.2 km/h 29% 0 mm 0.0 W/m2
21:52 23.6 °C 5 °C 1004.6 hPa SSW 1.4 km/h 4.8 km/h 30% 0 mm 0.0 W/m2
21:57 23.4 °C 4.4 °C 1004.6 hPa SSW 1.4 km/h 8 km/h 29% 0 mm 0.0 W/m2
22:02 23.4 °C 4.4 °C 1004.6 hPa Calm   3.2 km/h 29% 0 mm 0.0 W/m2
22:08 23.4 °C 4.4 °C 1004.6 hPa Calm   1.6 km/h 29% 0 mm 0.0 W/m2
22:13 23.3 °C 4.3 °C 1004.6 hPa Calm   4.8 km/h 29% 0 mm 0.0 W/m2
22:24 23.1 °C 3.6 °C 1004.6 hPa Calm   3.2 km/h 28% 0 mm 0.0 W/m2
22:29 23.1 °C 3.6 °C 1004.6 hPa Calm   1.6 km/h 28% 0 mm 0.0 W/m2
22:39 22.8 °C 3.3 °C 1004.6 hPa Calm     28% 0 mm 0.0 W/m2
22:45 22.7 °C 3.2 °C 1005 hPa Calm   1.6 km/h 28% 0 mm 0.0 W/m2
22:50 22.6 °C 3.7 °C 1005 hPa Calm   1.6 km/h 29% 0 mm 0.0 W/m2
22:55 22.5 °C 3.6 °C 1005 hPa Calm     29% 0 mm 0.0 W/m2
23:00 22.3 °C 3.4 °C 1005 hPa Calm     29% 0 mm 0.0 W/m2
23:05 22.2 °C 3.8 °C 1005 hPa Calm     30% 0 mm 0.0 W/m2
23:10 22.1 °C 3.7 °C 1005 hPa Calm     30% 0 mm 0.0 W/m2
23:15 21.9 °C 3.5 °C 1005 hPa Calm     30% 0 mm 0.0 W/m2
23:20 21.8 °C 3.9 °C 1005 hPa Calm     31% 0 mm 0.0 W/m2
23:26 21.6 °C 3.7 °C 1005 hPa Calm     31% 0 mm 0.0 W/m2
23:31 21.4 °C 3.6 °C 1005 hPa Calm   1.6 km/h 31% 0 mm 0.0 W/m2
23:36 21.3 °C 3 °C 1005 hPa Calm     30% 0 mm 0.0 W/m2
23:41 21.3 °C 3 °C 1005 hPa Calm     30% 0 mm 0.0 W/m2
23:46 21.2 °C 3.4 °C 1005 hPa Calm   1.6 km/h 31% 0 mm 0.0 W/m2
23:51 21.2 °C 3.4 °C 1004.6 hPa Calm     31% 0 mm 0.0 W/m2
23:56 21.1 °C 2.8 °C 1004.6 hPa Calm     30% 0 mm 0.0 W/m2
Olympia, Windhoek, Namibia
Compliments of Weather Underground - 3 mb